Asahi Maru No.25 — JD3598 — position and weather

sailwx.info

Track history (hours):
 
Tides and Currents Weather Stations Pressure Air Temp Water Temp Dewpoint Dewpoint Depression Visibility Wind Speed Wind Dir Waves Ship Positions

Asahi Maru No.25

Last reported at 2017-Dec-17 08:32 UTC. Time now 2017-Dec-17 15:32 UTC.
Position N 34°26' E 134°24'.

Length 73 m; draft 4.8 m.

Type: Tanker. MMSI: 431005058.

Date/timePositionNaut miles runAvg speedWind from/ knotsBaromVisibWave heightAir tempDewpointWater temp
2017-Dec-17 08:32N 34°26' E 134°24'211.9
2017-Dec-17 08:22N 34°27' E 134°26'411.8
2017-Dec-17 08:00N 34°29' E 134°31'611.4
2017-Dec-17 07:30N 34°31' E 134°38'611.3
2017-Dec-17 07:00N 34°33' E 134°44'611.1
2017-Dec-17 06:30N 34°35' E 134°50'510.6
2017-Dec-17 06:00N 34°37' E 134°56'5 9.1
2017-Dec-17 05:30N 34°37' E 135°02'4 8.9
2017-Dec-17 05:00N 34°35' E 135°07'510.7
2017-Dec-17 04:30N 34°35' E 135°13'611.1
2017-Dec-17 04:00N 34°34' E 135°20'5 9.5
2017-Dec-17 03:30N 34°33' E 135°26'1 1.0
2017-Dec-17 03:00N 34°34' E 135°26'0 0.0
2017-Dec-17 02:30N 34°34' E 135°26'0 0.0
2017-Dec-17 02:00N 34°34' E 135°26'0 0.0
2017-Dec-17 01:30N 34°34' E 135°26'0 0.0
2017-Dec-17 01:00N 34°34' E 135°26'0 0.0
2017-Dec-17 00:30N 34°34' E 135°26'0 0.0
2017-Dec-17 00:00N 34°34' E 135°26'1 1.5
2017-Dec-16 23:30N 34°33' E 135°25'5 9.5
2017-Dec-16 23:00N 34°33' E 135°20'1 2.4
2017-Dec-16 22:30N 34°32' E 135°21'3 6.4
2017-Dec-16 22:00N 34°31' E 135°24'0 0.3
2017-Dec-16 21:30N 34°31' E 135°25'0 0.0
2017-Dec-16 21:00N 34°31' E 135°25'0 0.1
2017-Dec-16 20:30N 34°31' E 135°25'0 0.0
2017-Dec-16 20:00N 34°31' E 135°25'0 0.1
2017-Dec-16 19:30N 34°31' E 135°25'0 0.0
2017-Dec-16 19:00N 34°31' E 135°25'0 0.1
2017-Dec-16 18:30N 34°31' E 135°25'0 0.1
2017-Dec-16 18:00N 34°31' E 135°25'0 0.0
2017-Dec-16 17:30N 34°31' E 135°25'0 0.1
2017-Dec-16 17:01N 34°31' E 135°25'0 0.1
2017-Dec-16 16:30N 34°31' E 135°25'0 0.0
2017-Dec-16 16:00N 34°31' E 135°25'0 0.0
2017-Dec-16 15:30N 34°31' E 135°25'0 0.1
2017-Dec-16 15:00N 34°31' E 135°25'0 0.1
2017-Dec-16 14:30N 34°31' E 135°25'0 0.0
2017-Dec-16 14:01N 34°31' E 135°25'0 0.0
2017-Dec-16 13:30N 34°31' E 135°25'0 0.0
2017-Dec-16 13:00N 34°31' E 135°25'0 0.0
2017-Dec-16 12:31N 34°31' E 135°25'0 0.0
2017-Dec-16 12:00N 34°31' E 135°25'0 0.0
2017-Dec-16 11:30N 34°31' E 135°25'0 0.0
2017-Dec-16 11:00N 34°31' E 135°25'0 0.1
2017-Dec-16 10:30N 34°31' E 135°25'0 0.1
2017-Dec-16 10:00N 34°31' E 135°25'0 0.1
2017-Dec-16 09:30N 34°31' E 135°25'0 0.1
2017-Dec-16 09:01N 34°31' E 135°25'0 0.1
2017-Dec-16 08:30N 34°31' E 135°25'0 0.1
2017-Dec-16 08:00N 34°31' E 135°25'0 0.0
2017-Dec-16 07:30N 34°31' E 135°25'0 0.0
2017-Dec-16 07:00N 34°31' E 135°25'0 0.0
2017-Dec-16 06:30N 34°31' E 135°25'0 0.1
2017-Dec-16 06:00N 34°31' E 135°25'0 0.0
2017-Dec-16 05:31N 34°31' E 135°25'0 0.0
2017-Dec-16 05:00N 34°31' E 135°25'0 0.0
2017-Dec-16 04:30N 34°31' E 135°25'0 0.0
2017-Dec-16 04:00N 34°31' E 135°25'0 0.0
2017-Dec-16 03:30N 34°31' E 135°25'0 0.1
2017-Dec-16 03:00N 34°31' E 135°25'1 1.3
2017-Dec-16 02:30N 34°31' E 135°24'3 6.2
2017-Dec-16 02:01N 34°31' E 135°20'0 0.1
2017-Dec-16 01:30N 34°31' E 135°20'0 0.0
2017-Dec-16 01:00N 34°31' E 135°20'0 0.0
2017-Dec-16 00:30N 34°31' E 135°20'0 0.0
2017-Dec-16 00:00N 34°31' E 135°20'0 0.1
2017-Dec-15 23:31N 34°31' E 135°20'0 0.0
2017-Dec-15 23:01N 34°31' E 135°20'3 5.3
2017-Dec-15 22:30N 34°30' E 135°18'612.9
2017-Dec-15 22:00N 34°27' E 135°11'713.3
2017-Dec-15 21:30N 34°23' E 135°05'713.8
2017-Dec-15 21:01N 34°17' E 134°59'713.2
2017-Dec-15 20:30N 34°11' E 134°60'612.8
2017-Dec-15 20:00N 34°04' E 135°00'612.8
2017-Dec-15 19:30N 33°58' E 135°01'103 8.7
2017-Dec-15 07:41N 34°36' E 136°57'312.7
2017-Dec-15 07:28N 34°37' E 136°54'612.6
2017-Dec-15 06:59N 34°42' E 136°49'612.9
2017-Dec-15 06:30N 34°47' E 136°46'612.7
2017-Dec-15 06:00N 34°54' E 136°46'612.0
2017-Dec-15 05:30N 34°59' E 136°49'510.4
2017-Dec-15 05:00N 35°04' E 136°52'0 0.4
2017-Dec-15 04:30N 35°04' E 136°52'0 0.0
2017-Dec-15 04:00N 35°04' E 136°52'0 0.0
2017-Dec-15 02:30N 35°04' E 136°52'0 0.0
2017-Dec-15 01:00N 35°04' E 136°52'0 0.1
2017-Dec-15 00:30N 35°04' E 136°52'115 7.1
2017-Dec-14 08:22N 33°53' E 135°02'412.0
2017-Dec-14 08:00N 33°58' E 135°01'612.1
2017-Dec-14 07:31N 34°04' E 134°60'612.4
2017-Dec-14 07:00N 34°10' E 134°59'612.8
2017-Dec-14 06:30N 34°16' E 134°59'611.8
2017-Dec-14 06:00N 34°22' E 135°01'612.4
2017-Dec-14 05:30N 34°25' E 135°07'612.2
2017-Dec-14 05:01N 34°29' E 135°13'611.9
2017-Dec-14 04:31N 34°32' E 135°19'510.2
2017-Dec-14 04:00N 34°33' E 135°25'1 1.6
2017-Dec-14 03:30N 34°34' E 135°26'0 0.0
2017-Dec-14 03:00N 34°34' E 135°26'0 0.0
2017-Dec-14 02:30N 34°34' E 135°26'0 0.0
2017-Dec-14 02:00N 34°34' E 135°26'0 0.0
2017-Dec-14 01:30N 34°34' E 135°26'0 0.0
2017-Dec-14 01:00N 34°34' E 135°26'0 0.0
2017-Dec-14 00:30N 34°34' E 135°26'0 0.0
2017-Dec-14 00:00N 34°34' E 135°26'0 0.2
2017-Dec-13 23:31N 34°33' E 135°26'3 6.9
2017-Dec-13 23:01N 34°33' E 135°22'2 4.2
2017-Dec-13 22:30N 34°31' E 135°20'0 0.0
2017-Dec-13 22:00N 34°31' E 135°20'0 0.0
2017-Dec-13 21:30N 34°31' E 135°20'0 0.1
2017-Dec-13 21:01N 34°31' E 135°20'0 0.0
2017-Dec-13 20:30N 34°31' E 135°20'0 0.0
2017-Dec-13 20:01N 34°31' E 135°20'0 0.0
2017-Dec-13 19:30N 34°31' E 135°20'0 0.0
2017-Dec-13 19:00N 34°31' E 135°20'0 0.0
2017-Dec-13 18:31N 34°31' E 135°20'0 0.0
2017-Dec-13 18:01N 34°31' E 135°20'0 0.0
2017-Dec-13 17:30N 34°31' E 135°20'0 0.0
2017-Dec-13 17:01N 34°31' E 135°20'0 0.0
2017-Dec-13 16:30N 34°31' E 135°20'0 0.0
2017-Dec-13 16:00N 34°31' E 135°20'0 0.0
2017-Dec-13 15:30N 34°31' E 135°20'0 0.0
2017-Dec-13 15:01N 34°31' E 135°20'0 0.0
2017-Dec-13 14:30N 34°31' E 135°20'2 3.1
2017-Dec-13 14:00N 34°31' E 135°18'612.8
2017-Dec-13 13:30N 34°34' E 135°11'713.9
2017-Dec-13 13:00N 34°36' E 135°03'713.2
2017-Dec-13 12:30N 34°35' E 134°55'713.8
2017-Dec-13 12:00N 34°33' E 134°47'713.1
2017-Dec-13 11:30N 34°30' E 134°40'2412.6
2017-Dec-13 09:36N 34°25' E 134°11'7711.5
2017-Dec-13 02:52N 33°58' E 132°44'511.9
2017-Dec-13 02:29N 33°55' E 132°40'1412.2
2017-Dec-13 01:20N 33°50' E 132°24'412.1
2017-Dec-13 01:00N 33°50' E 132°19'612.5
2017-Dec-13 00:30N 33°49' E 132°12'612.4
2017-Dec-13 00:00N 33°46' E 132°05'912.6
2017-Dec-12 23:18N 33°45' E 131°55'513.2
2017-Dec-12 22:56N 33°46' E 131°49'613.3
2017-Dec-12 22:30N 33°47' E 131°42'713.0
2017-Dec-12 22:00N 33°49' E 131°35'613.0
2017-Dec-12 21:30N 33°50' E 131°27'612.7
2017-Dec-12 21:00N 33°51' E 131°19'612.4
2017-Dec-12 20:30N 33°53' E 131°12'612.5
2017-Dec-12 20:00N 33°56' E 131°06'611.8
2017-Dec-12 19:30N 33°58' E 130°59'611.5
2017-Dec-12 19:00N 33°54' E 130°54'612.2
2017-Dec-12 18:30N 33°58' E 130°48'612.5
2017-Dec-12 18:00N 33°58' E 130°41'612.2
2017-Dec-12 17:30N 33°58' E 130°34'611.9
2017-Dec-12 17:00N 33°57' E 130°26'511.1
2017-Dec-12 16:30N 33°54' E 130°20'611.8
2017-Dec-12 16:00N 33°51' E 130°14'611.8
2017-Dec-12 15:30N 33°48' E 130°08'811.9
2017-Dec-12 14:51N 33°44' E 130°00'411.9
2017-Dec-12 14:30N 33°42' E 129°56'811.6
2017-Dec-12 13:49N 33°36' E 129°49'  
2017-Dec-09 11:21N 33°42' E 129°55'511.5
2017-Dec-09 10:55N 33°44' E 130°00'511.5
2017-Dec-09 10:30N 33°47' E 130°05'611.2
2017-Dec-09 10:00N 33°50' E 130°11'511.1
2017-Dec-09 09:30N 33°53' E 130°17'510.9
2017-Dec-09 09:00N 33°55' E 130°22'510.7
2017-Dec-09 08:30N 33°57' E 130°28'611.5
2017-Dec-09 08:00N 33°58' E 130°35'611.6
2017-Dec-09 07:30N 33°58' E 130°42'611.4
2017-Dec-09 07:00N 33°58' E 130°49'4 7.7
2017-Dec-09 06:30N 33°55' E 130°52'0 0.1
2017-Dec-09 06:00N 33°55' E 130°52'0 0.0
2017-Dec-09 05:30N 33°55' E 130°52'0 0.1
2017-Dec-09 05:00N 33°55' E 130°52'0 0.1
2017-Dec-09 04:30N 33°55' E 130°52'0 0.2
2017-Dec-09 04:00N 33°55' E 130°52'3 6.2
2017-Dec-09 03:30N 33°55' E 130°56'611.5
2017-Dec-09 03:00N 33°58' E 131°02'612.5
2017-Dec-09 02:30N 33°55' E 131°08'612.7
2017-Dec-09 02:00N 33°52' E 131°15'612.7
2017-Dec-09 01:30N 33°50' E 131°23'612.5
2017-Dec-09 01:00N 33°49' E 131°30'612.3
2017-Dec-09 00:29N 33°48' E 131°38'2011.9
2017-Dec-08 22:47N 33°46' E 132°02'812.3
2017-Dec-08 22:09N 33°49' E 132°10'412.1
2017-Dec-08 21:48N 33°50' E 132°15'1412.5
2017-Dec-08 20:40N 33°53' E 132°32'213.0
2017-Dec-08 20:30N 33°53' E 132°34'612.9
2017-Dec-08 20:00N 33°57' E 132°41'7511.3
2017-Dec-08 13:25N 34°27' E 134°03'1812.0
2017-Dec-08 11:53N 34°26' E 134°26'512.0
2017-Dec-08 11:30N 34°28' E 134°31'611.5
2017-Dec-08 11:00N 34°30' E 134°37'611.2
2017-Dec-08 10:30N 34°32' E 134°43'611.2
2017-Dec-08 10:00N 34°34' E 134°50'510.3
2017-Dec-08 09:30N 34°36' E 134°55'5 9.4
2017-Dec-08 09:00N 34°38' E 135°01'4 8.7
2017-Dec-08 08:30N 34°35' E 135°06'510.3
2017-Dec-08 08:00N 34°35' E 135°12'510.5
2017-Dec-08 07:30N 34°34' E 135°18'510.0
2017-Dec-08 07:00N 34°33' E 135°24'2 3.5
2017-Dec-08 06:30N 34°34' E 135°26'0 0.0
2017-Dec-08 06:00N 34°34' E 135°26'0 0.0
2017-Dec-08 05:30N 34°34' E 135°26'0 0.0
2017-Dec-08 05:00N 34°34' E 135°26'0 0.0
2017-Dec-08 04:30N 34°34' E 135°26'0 0.0
2017-Dec-08 04:00N 34°34' E 135°26'0 0.0
2017-Dec-08 03:30N 34°34' E 135°26'0 0.0
2017-Dec-08 03:00N 34°34' E 135°26'0 0.0
2017-Dec-08 02:30N 34°34' E 135°26'0 0.1
2017-Dec-08 02:00N 34°33' E 135°26'1 1.3
2017-Dec-08 01:30N 34°33' E 135°25'2 4.5
2017-Dec-08 01:00N 34°33' E 135°23'3 5.0
2017-Dec-08 00:30N 34°32' E 135°20'0 0.0
2017-Dec-08 00:00N 34°32' E 135°20'3 6.0
2017-Dec-07 23:31N 34°32' E 135°16'612.9
2017-Dec-07 23:01N 34°34' E 135°09'713.9
2017-Dec-07 22:30N 34°37' E 135°01'713.9
2017-Dec-07 22:00N 34°35' E 134°53'713.9
2017-Dec-07 21:30N 34°31' E 134°45'713.4
2017-Dec-07 21:00N 34°29' E 134°38'2213.2
2017-Dec-07 19:19N 34°25' E 134°11'7512.7
2017-Dec-07 13:24N 33°60' E 132°45'513.5
2017-Dec-07 13:00N 33°56' E 132°41'1613.5
2017-Dec-07 11:50N 33°50' E 132°23'513.5
2017-Dec-07 11:29N 33°50' E 132°17'613.1
2017-Dec-07 11:00N 33°49' E 132°10'612.8
2017-Dec-07 10:30N 33°45' E 132°03'912.7
2017-Dec-07 09:49N 33°46' E 131°53'512.8
2017-Dec-07 09:27N 33°47' E 131°47'613.1
2017-Dec-07 09:00N 33°48' E 131°40'  
Track history (hours):
 
Tides and Currents Weather Stations Pressure Air Temp Water Temp Dewpoint Dewpoint Depression Visibility Wind Speed Wind Dir Waves Ship Positions

Asahi Maru No.25

Last reported at 2017-Dec-17 08:32 UTC. Time now 2017-Dec-17 15:32 UTC.
Position N 34°26' E 134°24'.

Length 73 m; draft 4.8 m.

Type: Tanker. MMSI: 431005058.

Date/timePositionNaut miles runAvg speedWind from/ knotsBaromVisibWave heightAir tempDewpointWater temp
2017-Dec-17 08:32N 34°26' E 134°24'211.9
2017-Dec-17 08:22N 34°27' E 134°26'411.8
2017-Dec-17 08:00N 34°29' E 134°31'611.4
2017-Dec-17 07:30N 34°31' E 134°38'611.3
2017-Dec-17 07:00N 34°33' E 134°44'611.1
2017-Dec-17 06:30N 34°35' E 134°50'510.6
2017-Dec-17 06:00N 34°37' E 134°56'5 9.1
2017-Dec-17 05:30N 34°37' E 135°02'4 8.9
2017-Dec-17 05:00N 34°35' E 135°07'510.7
2017-Dec-17 04:30N 34°35' E 135°13'611.1
2017-Dec-17 04:00N 34°34' E 135°20'5 9.5
2017-Dec-17 03:30N 34°33' E 135°26'1 1.0
2017-Dec-17 03:00N 34°34' E 135°26'0 0.0
2017-Dec-17 02:30N 34°34' E 135°26'0 0.0
2017-Dec-17 02:00N 34°34' E 135°26'0 0.0
2017-Dec-17 01:30N 34°34' E 135°26'0 0.0
2017-Dec-17 01:00N 34°34' E 135°26'0 0.0
2017-Dec-17 00:30N 34°34' E 135°26'0 0.0
2017-Dec-17 00:00N 34°34' E 135°26'1 1.5
2017-Dec-16 23:30N 34°33' E 135°25'5 9.5
2017-Dec-16 23:00N 34°33' E 135°20'1 2.4
2017-Dec-16 22:30N 34°32' E 135°21'3 6.4
2017-Dec-16 22:00N 34°31' E 135°24'0 0.3
2017-Dec-16 21:30N 34°31' E 135°25'0 0.0
2017-Dec-16 21:00N 34°31' E 135°25'0 0.1
2017-Dec-16 20:30N 34°31' E 135°25'0 0.0
2017-Dec-16 20:00N 34°31' E 135°25'0 0.1
2017-Dec-16 19:30N 34°31' E 135°25'0 0.0
2017-Dec-16 19:00N 34°31' E 135°25'0 0.1
2017-Dec-16 18:30N 34°31' E 135°25'0 0.1
2017-Dec-16 18:00N 34°31' E 135°25'0 0.0
2017-Dec-16 17:30N 34°31' E 135°25'0 0.1
2017-Dec-16 17:01N 34°31' E 135°25'0 0.1
2017-Dec-16 16:30N 34°31' E 135°25'0 0.0
2017-Dec-16 16:00N 34°31' E 135°25'0 0.0
2017-Dec-16 15:30N 34°31' E 135°25'0 0.1
2017-Dec-16 15:00N 34°31' E 135°25'0 0.1
2017-Dec-16 14:30N 34°31' E 135°25'0 0.0
2017-Dec-16 14:01N 34°31' E 135°25'0 0.0
2017-Dec-16 13:30N 34°31' E 135°25'0 0.0
2017-Dec-16 13:00N 34°31' E 135°25'0 0.0
2017-Dec-16 12:31N 34°31' E 135°25'0 0.0
2017-Dec-16 12:00N 34°31' E 135°25'0 0.0
2017-Dec-16 11:30N 34°31' E 135°25'0 0.0
2017-Dec-16 11:00N 34°31' E 135°25'0 0.1
2017-Dec-16 10:30N 34°31' E 135°25'0 0.1
2017-Dec-16 10:00N 34°31' E 135°25'0 0.1
2017-Dec-16 09:30N 34°31' E 135°25'0 0.1
2017-Dec-16 09:01N 34°31' E 135°25'0 0.1
2017-Dec-16 08:30N 34°31' E 135°25'0 0.1
2017-Dec-16 08:00N 34°31' E 135°25'0 0.0
2017-Dec-16 07:30N 34°31' E 135°25'0 0.0
2017-Dec-16 07:00N 34°31' E 135°25'0 0.0
2017-Dec-16 06:30N 34°31' E 135°25'0 0.1
2017-Dec-16 06:00N 34°31' E 135°25'0 0.0
2017-Dec-16 05:31N 34°31' E 135°25'0 0.0
2017-Dec-16 05:00N 34°31' E 135°25'0 0.0
2017-Dec-16 04:30N 34°31' E 135°25'0 0.0
2017-Dec-16 04:00N 34°31' E 135°25'0 0.0
2017-Dec-16 03:30N 34°31' E 135°25'0 0.1
2017-Dec-16 03:00N 34°31' E 135°25'1 1.3
2017-Dec-16 02:30N 34°31' E 135°24'3 6.2
2017-Dec-16 02:01N 34°31' E 135°20'0 0.1
2017-Dec-16 01:30N 34°31' E 135°20'0 0.0
2017-Dec-16 01:00N 34°31' E 135°20'0 0.0
2017-Dec-16 00:30N 34°31' E 135°20'0 0.0
2017-Dec-16 00:00N 34°31' E 135°20'0 0.1
2017-Dec-15 23:31N 34°31' E 135°20'0 0.0
2017-Dec-15 23:01N 34°31' E 135°20'3 5.3
2017-Dec-15 22:30N 34°30' E 135°18'612.9
2017-Dec-15 22:00N 34°27' E 135°11'713.3
2017-Dec-15 21:30N 34°23' E 135°05'713.8
2017-Dec-15 21:01N 34°17' E 134°59'713.2
2017-Dec-15 20:30N 34°11' E 134°60'612.8
2017-Dec-15 20:00N 34°04' E 135°00'612.8
2017-Dec-15 19:30N 33°58' E 135°01'103 8.7
2017-Dec-15 07:41N 34°36' E 136°57'312.7
2017-Dec-15 07:28N 34°37' E 136°54'612.6
2017-Dec-15 06:59N 34°42' E 136°49'612.9
2017-Dec-15 06:30N 34°47' E 136°46'612.7
2017-Dec-15 06:00N 34°54' E 136°46'612.0
2017-Dec-15 05:30N 34°59' E 136°49'510.4
2017-Dec-15 05:00N 35°04' E 136°52'0 0.4
2017-Dec-15 04:30N 35°04' E 136°52'0 0.0
2017-Dec-15 04:00N 35°04' E 136°52'0 0.0
2017-Dec-15 02:30N 35°04' E 136°52'0 0.0
2017-Dec-15 01:00N 35°04' E 136°52'0 0.1
2017-Dec-15 00:30N 35°04' E 136°52'115 7.1
2017-Dec-14 08:22N 33°53' E 135°02'412.0
2017-Dec-14 08:00N 33°58' E 135°01'612.1
2017-Dec-14 07:31N 34°04' E 134°60'612.4
2017-Dec-14 07:00N 34°10' E 134°59'612.8
2017-Dec-14 06:30N 34°16' E 134°59'611.8
2017-Dec-14 06:00N 34°22' E 135°01'612.4
2017-Dec-14 05:30N 34°25' E 135°07'612.2
2017-Dec-14 05:01N 34°29' E 135°13'611.9
2017-Dec-14 04:31N 34°32' E 135°19'510.2
2017-Dec-14 04:00N 34°33' E 135°25'1 1.6
2017-Dec-14 03:30N 34°34' E 135°26'0 0.0
2017-Dec-14 03:00N 34°34' E 135°26'0 0.0
2017-Dec-14 02:30N 34°34' E 135°26'0 0.0
2017-Dec-14 02:00N 34°34' E 135°26'0 0.0
2017-Dec-14 01:30N 34°34' E 135°26'0 0.0
2017-Dec-14 01:00N 34°34' E 135°26'0 0.0
2017-Dec-14 00:30N 34°34' E 135°26'0 0.0
2017-Dec-14 00:00N 34°34' E 135°26'0 0.2
2017-Dec-13 23:31N 34°33' E 135°26'3 6.9
2017-Dec-13 23:01N 34°33' E 135°22'2 4.2
2017-Dec-13 22:30N 34°31' E 135°20'0 0.0
2017-Dec-13 22:00N 34°31' E 135°20'0 0.0
2017-Dec-13 21:30N 34°31' E 135°20'0 0.1
2017-Dec-13 21:01N 34°31' E 135°20'0 0.0
2017-Dec-13 20:30N 34°31' E 135°20'0 0.0
2017-Dec-13 20:01N 34°31' E 135°20'0 0.0
2017-Dec-13 19:30N 34°31' E 135°20'0 0.0
2017-Dec-13 19:00N 34°31' E 135°20'0 0.0
2017-Dec-13 18:31N 34°31' E 135°20'0 0.0
2017-Dec-13 18:01N 34°31' E 135°20'0 0.0
2017-Dec-13 17:30N 34°31' E 135°20'0 0.0
2017-Dec-13 17:01N 34°31' E 135°20'0 0.0
2017-Dec-13 16:30N 34°31' E 135°20'0 0.0
2017-Dec-13 16:00N 34°31' E 135°20'0 0.0
2017-Dec-13 15:30N 34°31' E 135°20'0 0.0
2017-Dec-13 15:01N 34°31' E 135°20'0 0.0
2017-Dec-13 14:30N 34°31' E 135°20'2 3.1
2017-Dec-13 14:00N 34°31' E 135°18'612.8
2017-Dec-13 13:30N 34°34' E 135°11'713.9
2017-Dec-13 13:00N 34°36' E 135°03'713.2
2017-Dec-13 12:30N 34°35' E 134°55'713.8
2017-Dec-13 12:00N 34°33' E 134°47'713.1
2017-Dec-13 11:30N 34°30' E 134°40'2412.6
2017-Dec-13 09:36N 34°25' E 134°11'7711.5
2017-Dec-13 02:52N 33°58' E 132°44'511.9
2017-Dec-13 02:29N 33°55' E 132°40'1412.2
2017-Dec-13 01:20N 33°50' E 132°24'412.1
2017-Dec-13 01:00N 33°50' E 132°19'612.5
2017-Dec-13 00:30N 33°49' E 132°12'612.4
2017-Dec-13 00:00N 33°46' E 132°05'912.6
2017-Dec-12 23:18N 33°45' E 131°55'513.2
2017-Dec-12 22:56N 33°46' E 131°49'613.3
2017-Dec-12 22:30N 33°47' E 131°42'713.0
2017-Dec-12 22:00N 33°49' E 131°35'613.0
2017-Dec-12 21:30N 33°50' E 131°27'612.7
2017-Dec-12 21:00N 33°51' E 131°19'612.4
2017-Dec-12 20:30N 33°53' E 131°12'612.5
2017-Dec-12 20:00N 33°56' E 131°06'611.8
2017-Dec-12 19:30N 33°58' E 130°59'611.5
2017-Dec-12 19:00N 33°54' E 130°54'612.2
2017-Dec-12 18:30N 33°58' E 130°48'612.5
2017-Dec-12 18:00N 33°58' E 130°41'612.2
2017-Dec-12 17:30N 33°58' E 130°34'611.9
2017-Dec-12 17:00N 33°57' E 130°26'511.1
2017-Dec-12 16:30N 33°54' E 130°20'611.8
2017-Dec-12 16:00N 33°51' E 130°14'611.8
2017-Dec-12 15:30N 33°48' E 130°08'811.9
2017-Dec-12 14:51N 33°44' E 130°00'411.9
2017-Dec-12 14:30N 33°42' E 129°56'811.6
2017-Dec-12 13:49N 33°36' E 129°49'  
2017-Dec-09 11:21N 33°42' E 129°55'511.5
2017-Dec-09 10:55N 33°44' E 130°00'511.5
2017-Dec-09 10:30N 33°47' E 130°05'611.2
2017-Dec-09 10:00N 33°50' E 130°11'511.1
2017-Dec-09 09:30N 33°53' E 130°17'510.9
2017-Dec-09 09:00N 33°55' E 130°22'510.7
2017-Dec-09 08:30N 33°57' E 130°28'611.5
2017-Dec-09 08:00N 33°58' E 130°35'611.6
2017-Dec-09 07:30N 33°58' E 130°42'611.4
2017-Dec-09 07:00N 33°58' E 130°49'4 7.7
2017-Dec-09 06:30N 33°55' E 130°52'0 0.1
2017-Dec-09 06:00N 33°55' E 130°52'0 0.0
2017-Dec-09 05:30N 33°55' E 130°52'0 0.1
2017-Dec-09 05:00N 33°55' E 130°52'0 0.1
2017-Dec-09 04:30N 33°55' E 130°52'0 0.2
2017-Dec-09 04:00N 33°55' E 130°52'3 6.2
2017-Dec-09 03:30N 33°55' E 130°56'611.5
2017-Dec-09 03:00N 33°58' E 131°02'612.5
2017-Dec-09 02:30N 33°55' E 131°08'612.7
2017-Dec-09 02:00N 33°52' E 131°15'612.7
2017-Dec-09 01:30N 33°50' E 131°23'612.5
2017-Dec-09 01:00N 33°49' E 131°30'612.3
2017-Dec-09 00:29N 33°48' E 131°38'2011.9
2017-Dec-08 22:47N 33°46' E 132°02'812.3
2017-Dec-08 22:09N 33°49' E 132°10'412.1
2017-Dec-08 21:48N 33°50' E 132°15'1412.5
2017-Dec-08 20:40N 33°53' E 132°32'213.0
2017-Dec-08 20:30N 33°53' E 132°34'612.9
2017-Dec-08 20:00N 33°57' E 132°41'7511.3
2017-Dec-08 13:25N 34°27' E 134°03'1812.0
2017-Dec-08 11:53N 34°26' E 134°26'512.0
2017-Dec-08 11:30N 34°28' E 134°31'611.5
2017-Dec-08 11:00N 34°30' E 134°37'611.2
2017-Dec-08 10:30N 34°32' E 134°43'611.2
2017-Dec-08 10:00N 34°34' E 134°50'510.3
2017-Dec-08 09:30N 34°36' E 134°55'5 9.4
2017-Dec-08 09:00N 34°38' E 135°01'4 8.7
2017-Dec-08 08:30N 34°35' E 135°06'510.3
2017-Dec-08 08:00N 34°35' E 135°12'510.5
2017-Dec-08 07:30N 34°34' E 135°18'510.0
2017-Dec-08 07:00N 34°33' E 135°24'2 3.5
2017-Dec-08 06:30N 34°34' E 135°26'0 0.0
2017-Dec-08 06:00N 34°34' E 135°26'0 0.0
2017-Dec-08 05:30N 34°34' E 135°26'0 0.0
2017-Dec-08 05:00N 34°34' E 135°26'0 0.0
2017-Dec-08 04:30N 34°34' E 135°26'0 0.0
2017-Dec-08 04:00N 34°34' E 135°26'0 0.0
2017-Dec-08 03:30N 34°34' E 135°26'0 0.0
2017-Dec-08 03:00N 34°34' E 135°26'0 0.0
2017-Dec-08 02:30N 34°34' E 135°26'0 0.1
2017-Dec-08 02:00N 34°33' E 135°26'1 1.3
2017-Dec-08 01:30N 34°33' E 135°25'2 4.5
2017-Dec-08 01:00N 34°33' E 135°23'3 5.0
2017-Dec-08 00:30N 34°32' E 135°20'0 0.0
2017-Dec-08 00:00N 34°32' E 135°20'3 6.0
2017-Dec-07 23:31N 34°32' E 135°16'612.9
2017-Dec-07 23:01N 34°34' E 135°09'713.9
2017-Dec-07 22:30N 34°37' E 135°01'713.9
2017-Dec-07 22:00N 34°35' E 134°53'713.9
2017-Dec-07 21:30N 34°31' E 134°45'713.4
2017-Dec-07 21:00N 34°29' E 134°38'2213.2
2017-Dec-07 19:19N 34°25' E 134°11'7512.7
2017-Dec-07 13:24N 33°60' E 132°45'513.5
2017-Dec-07 13:00N 33°56' E 132°41'1613.5
2017-Dec-07 11:50N 33°50' E 132°23'513.5
2017-Dec-07 11:29N 33°50' E 132°17'613.1
2017-Dec-07 11:00N 33°49' E 132°10'612.8
2017-Dec-07 10:30N 33°45' E 132°03'912.7
2017-Dec-07 09:49N 33°46' E 131°53'512.8
2017-Dec-07 09:27N 33°47' E 131°47'613.1
2017-Dec-07 09:00N 33°48' E 131°40'  

Dump ship's entire track history